Etusivu
METAR-TAF:

METAR-TAF

Lentoasemat :

Pueblan kansainvälinen lentoasema Hermanos Serdán

Puebla, Meksiko

Leveyspiiri: 19-03N, Pituuspiiri: 098-10W, korkeus merenpinnasta: 2179 m

Tämänhetkinen sää

Tämä raportti tehtiin 1 tunti ja 18 minuuttia sitten, kello 12.15 UTC
Tuuli 8 kn pohjoisen/luoteesta
Lämpötila 10°C
Kosteus 71%
Ilmanpaine 1028 hPa
Näkyvyys: 11.3 km
selkeää

METAR: MMPB 081215Z RTD 34008KT 7SM SKC 10/05 A3035 RMK HZY AC RTS

Aika: 08:33 (13:33 UTC)

Sääennuste

Tämä raportti tehtiin 9 tuntia ja 15 minuuttia sitten, kello 04.18 UTC
Ennuste voimassa 08. päivästä klo 06 UTC - 09. päivään klo 06 UTC
Tuuli kn pohjoisesta
Näkyvyys: 10 km
selkeää
From 08. päivästä klo 1800 UTC
Tuuli 10 kn etelästä/lounaasta
Näkyvyys: 10 km
Hajanaisia pilviä 22000 ft:n korkeudessa
Tulossa
09. päivästä klo 00 UTC - 09. päivään klo 01 UTC
Tuuli 5 kn etelästä/lounaasta

TAF: MMPB 080418Z 0806/0906 00000KT P6SM SKC FM081800 20010KT P6SM SCT220 BECMG 0900/0901 20005KT

Säähavainnot ja -ennusteet yli 4000 lentoasemalta (METAR- ja TAF-raportit).

Käytössä olevat sääasemat on merkitty karttaan keltaisilla ja punaisilla pisteillä.

Aseta hiiri pisteen päälle nähdäksesi sääaseman nimen.

Klikkaa sitten nähdäksesi säähavainnot ja -ennusteet.

Kartan vaihtaminen: klikkaa mustalla rastilla varustettuja vihreitä pisteitä, niin voit zoomata sisään; viivalla varustettua vihreää pistettä, niin voit zoomata ulos tai vihreitä nuolia, niin pääset viereisille kartoille.


METAR-TAF: